createdAt,value
2022-12-31T00:01:40.431Z,100.00
2022-12-31T00:04:09.227Z,100.00
2022-12-31T00:06:38.311Z,100.00
2022-12-31T00:09:08.750Z,100.00
2022-12-31T00:11:38.247Z,100.00
2022-12-31T00:14:07.350Z,100.00
2022-12-31T00:16:42.069Z,100.00
2022-12-31T00:19:12.400Z,100.00
2022-12-31T00:21:41.284Z,100.00
2022-12-31T00:24:12.825Z,100.00
2022-12-31T00:26:42.547Z,100.00
2022-12-31T00:29:11.745Z,100.00
2022-12-31T00:31:40.846Z,100.00
2022-12-31T00:34:10.358Z,100.00
2022-12-31T00:36:40.158Z,100.00
2022-12-31T00:39:10.798Z,100.00
2022-12-31T00:41:40.402Z,100.00
2022-12-31T00:44:12.177Z,100.00
2022-12-31T00:49:09.743Z,100.00
2022-12-31T00:51:39.296Z,100.00
2022-12-31T00:54:09.923Z,100.00
2022-12-31T00:56:39.494Z,100.00
2022-12-31T00:59:08.156Z,100.00
2022-12-31T01:01:40.258Z,100.00
2022-12-31T01:04:15.947Z,100.00
2022-12-31T01:06:45.998Z,100.00
2022-12-31T01:09:17.097Z,100.00
2022-12-31T01:11:46.465Z,100.00
2022-12-31T01:14:21.111Z,100.00
2022-12-31T01:16:52.967Z,100.00
2022-12-31T01:19:27.864Z,100.00
2022-12-31T01:21:58.432Z,100.00
2022-12-31T01:24:27.889Z,100.00
2022-12-31T01:26:58.176Z,100.00
2022-12-31T01:29:28.716Z,100.00
2022-12-31T01:31:57.943Z,100.00
2022-12-31T01:34:27.358Z,100.00
2022-12-31T01:36:57.496Z,100.00
2022-12-31T01:39:27.374Z,100.00
2022-12-31T01:41:56.476Z,100.00
2022-12-31T01:44:25.688Z,100.00
2022-12-31T01:46:59.399Z,100.00
2022-12-31T01:49:28.691Z,100.00
2022-12-31T01:52:03.580Z,100.00
2022-12-31T01:54:36.791Z,100.00
2022-12-31T01:57:07.527Z,100.00
2022-12-31T01:59:36.818Z,100.00
2022-12-31T02:02:06.838Z,100.00
2022-12-31T02:04:37.272Z,100.00
2022-12-31T02:07:09.285Z,100.00
2022-12-31T02:09:41.213Z,100.00
2022-12-31T02:12:12.694Z,100.00
2022-12-31T02:14:49.029Z,100.00
2022-12-31T02:17:17.784Z,100.00
2022-12-31T02:20:25.096Z,100.00
2022-12-31T02:23:23.270Z,100.00
2022-12-31T02:26:07.845Z,100.00
2022-12-31T02:29:25.346Z,100.00
2022-12-31T02:32:03.577Z,100.00
2022-12-31T02:34:44.672Z,100.00
2022-12-31T02:37:16.901Z,100.00
2022-12-31T02:39:47.188Z,100.00
2022-12-31T02:42:15.924Z,100.00
2022-12-31T02:44:45.172Z,100.00
2022-12-31T02:47:36.085Z,100.00
2022-12-31T02:50:29.994Z,100.00
2022-12-31T02:53:40.251Z,100.00
2022-12-31T02:56:32.117Z,100.00
2022-12-31T02:59:33.237Z,100.00
2022-12-31T03:02:15.248Z,100.00
2022-12-31T03:04:52.927Z,100.00
2022-12-31T03:07:25.732Z,100.00
2022-12-31T03:09:56.473Z,100.00
2022-12-31T03:12:50.416Z,100.00
2022-12-31T03:15:26.222Z,100.00
2022-12-31T03:18:13.712Z,100.00
2022-12-31T03:21:09.336Z,100.00
2022-12-31T03:23:51.366Z,100.00
2022-12-31T03:26:21.338Z,100.00
2022-12-31T03:28:50.876Z,100.00
2022-12-31T03:31:21.426Z,100.00
2022-12-31T03:33:51.342Z,100.00
2022-12-31T03:36:20.832Z,100.00
2022-12-31T03:38:52.838Z,100.00
2022-12-31T03:41:22.571Z,100.00
2022-12-31T03:43:52.262Z,100.00
2022-12-31T03:46:22.027Z,100.00
2022-12-31T03:48:51.124Z,100.00
2022-12-31T03:51:22.233Z,100.00
2022-12-31T03:53:51.609Z,100.00
2022-12-31T03:56:21.263Z,100.00
2022-12-31T03:58:50.715Z,100.00
2022-12-31T04:01:20.543Z,100.00
2022-12-31T04:03:49.778Z,100.00
2022-12-31T04:06:19.452Z,100.00
2022-12-31T04:08:48.741Z,100.00
2022-12-31T04:11:21.003Z,100.00
2022-12-31T04:13:51.076Z,100.00
2022-12-31T04:16:20.659Z,100.00
2022-12-31T04:18:49.634Z,100.00
2022-12-31T04:21:18.613Z,100.00
2022-12-31T04:23:47.913Z,100.00
2022-12-31T04:26:17.086Z,100.00
2022-12-31T04:28:46.316Z,100.00
2022-12-31T04:31:15.652Z,100.00
2022-12-31T04:33:45.117Z,100.00
2022-12-31T04:36:14.419Z,100.00
2022-12-31T04:38:44.063Z,100.00
2022-12-31T04:41:21.425Z,100.00
2022-12-31T04:43:53.270Z,100.00
2022-12-31T04:46:25.557Z,100.00
2022-12-31T04:48:55.363Z,100.00
2022-12-31T04:51:25.644Z,100.00
2022-12-31T04:53:55.282Z,100.00
2022-12-31T04:56:25.529Z,100.00
2022-12-31T04:58:54.982Z,100.00
2022-12-31T05:01:24.809Z,100.00
2022-12-31T05:03:54.315Z,100.00
2022-12-31T05:06:24.629Z,100.00
2022-12-31T05:08:54.697Z,100.00
2022-12-31T05:11:23.982Z,100.00
2022-12-31T05:13:53.168Z,100.00
2022-12-31T05:16:22.158Z,100.00
2022-12-31T05:18:51.355Z,100.00
2022-12-31T05:21:22.208Z,100.00
2022-12-31T05:23:51.185Z,100.00
2022-12-31T05:26:20.167Z,100.00
2022-12-31T05:28:49.787Z,100.00
2022-12-31T05:31:18.501Z,100.00
2022-12-31T05:33:47.365Z,100.00
2022-12-31T05:36:16.667Z,100.00
2022-12-31T05:38:45.575Z,100.00
2022-12-31T05:41:14.437Z,100.00
2022-12-31T05:43:43.546Z,100.00
2022-12-31T05:46:13.242Z,100.00
2022-12-31T05:48:41.939Z,100.00
2022-12-31T05:51:11.130Z,100.00
2022-12-31T05:53:41.263Z,100.00
2022-12-31T05:56:10.346Z,100.00
2022-12-31T05:58:39.758Z,100.00
2022-12-31T06:01:08.963Z,100.00
2022-12-31T06:03:37.836Z,100.00
2022-12-31T06:06:08.339Z,100.00
2022-12-31T06:08:37.071Z,100.00
2022-12-31T06:11:06.242Z,100.00
2022-12-31T06:13:35.023Z,100.00
2022-12-31T06:16:08.801Z,100.00
2022-12-31T06:18:38.136Z,100.00
2022-12-31T06:21:06.828Z,100.00
2022-12-31T06:23:35.573Z,100.00
2022-12-31T06:26:05.830Z,100.00
2022-12-31T06:28:34.753Z,100.00
2022-12-31T06:31:06.297Z,100.00
2022-12-31T06:33:35.878Z,100.00
2022-12-31T06:36:07.008Z,100.00
2022-12-31T06:38:38.902Z,100.00
2022-12-31T06:41:10.681Z,100.00
2022-12-31T06:43:40.789Z,100.00
2022-12-31T06:46:11.839Z,100.00
2022-12-31T06:48:43.451Z,100.00
2022-12-31T06:51:17.405Z,100.00
2022-12-31T06:53:47.924Z,100.00
2022-12-31T06:56:17.952Z,100.00
2022-12-31T06:58:47.727Z,100.00
2022-12-31T07:01:37.876Z,100.00
2022-12-31T07:04:18.680Z,100.00
2022-12-31T07:07:11.599Z,100.00
2022-12-31T07:09:51.576Z,100.00
2022-12-31T07:12:39.842Z,100.00
2022-12-31T07:15:33.803Z,100.00
2022-12-31T07:18:21.230Z,100.00
2022-12-31T07:20:50.545Z,99.27
2022-12-31T07:23:19.621Z,99.45
2022-12-31T07:25:58.032Z,100.00
2022-12-31T07:28:36.145Z,100.00
2022-12-31T07:31:28.016Z,97.66
2022-12-31T07:34:00.547Z,93.76
2022-12-31T07:36:43.985Z,82.40
2022-12-31T07:39:36.831Z,79.93
2022-12-31T07:42:12.165Z,80.56
2022-12-31T07:44:43.722Z,80.74
2022-12-31T07:47:23.042Z,83.65
2022-12-31T07:49:52.463Z,81.94
2022-12-31T07:52:22.223Z,79.05
2022-12-31T07:54:50.848Z,75.15
2022-12-31T07:57:21.601Z,73.30
2022-12-31T07:59:56.116Z,72.08
2022-12-31T08:02:58.720Z,71.47
2022-12-31T08:05:46.419Z,69.61
2022-12-31T08:08:24.424Z,68.28
2022-12-31T08:11:09.093Z,69.96
2022-12-31T08:13:40.605Z,73.02
2022-12-31T08:16:13.598Z,75.75
2022-12-31T08:18:43.164Z,77.34
2022-12-31T08:21:34.967Z,79.40
2022-12-31T08:24:09.990Z,80.81
2022-12-31T08:26:46.947Z,81.22
2022-12-31T08:29:31.934Z,82.89
2022-12-31T08:32:10.651Z,83.84
2022-12-31T08:35:01.369Z,83.62
2022-12-31T08:37:43.975Z,83.73
2022-12-31T08:40:18.703Z,86.11
2022-12-31T08:43:02.130Z,87.61
2022-12-31T08:45:41.958Z,88.71
2022-12-31T08:48:13.527Z,89.81
2022-12-31T08:50:42.638Z,89.58
2022-12-31T08:53:11.830Z,90.18
2022-12-31T08:55:42.450Z,90.74
2022-12-31T08:58:33.047Z,92.53
2022-12-31T09:01:02.450Z,92.82
2022-12-31T09:03:33.906Z,92.54
2022-12-31T09:06:11.396Z,92.13
2022-12-31T09:09:03.949Z,91.37
2022-12-31T09:11:51.056Z,91.14
2022-12-31T09:14:28.563Z,91.51
2022-12-31T09:17:10.954Z,91.59
2022-12-31T09:19:39.540Z,87.11
2022-12-31T09:22:10.917Z,83.76
2022-12-31T09:24:40.088Z,79.68
2022-12-31T09:27:40.859Z,70.65
2022-12-31T09:30:14.923Z,73.82
2022-12-31T09:33:05.232Z,63.52
2022-12-31T09:35:48.452Z,60.82
2022-12-31T09:38:23.280Z,58.67
2022-12-31T09:41:17.111Z,57.29
2022-12-31T09:44:37.356Z,55.81
2022-12-31T09:47:18.019Z,53.80
2022-12-31T09:50:29.204Z,50.79
2022-12-31T09:53:22.154Z,50.05
2022-12-31T09:55:57.408Z,49.44
2022-12-31T09:58:28.642Z,49.80
2022-12-31T10:01:02.747Z,49.45
2022-12-31T10:04:05.753Z,46.66
2022-12-31T10:06:37.300Z,46.26
2022-12-31T10:09:36.087Z,47.51
2022-12-31T10:12:29.252Z,46.53
2022-12-31T10:15:28.651Z,46.69
2022-12-31T10:18:15.868Z,46.42
2022-12-31T10:20:47.628Z,46.24
2022-12-31T10:23:44.371Z,47.47
2022-12-31T10:26:53.606Z,48.86
2022-12-31T10:29:41.242Z,50.00
2022-12-31T10:32:31.689Z,52.47
2022-12-31T10:35:14.139Z,53.29
2022-12-31T10:37:54.600Z,54.74
2022-12-31T10:40:42.142Z,56.18
2022-12-31T10:43:44.816Z,58.36
2022-12-31T10:46:30.631Z,59.55
2022-12-31T10:49:17.920Z,60.43
2022-12-31T10:52:21.624Z,62.38
2022-12-31T10:55:05.374Z,64.27
2022-12-31T10:57:56.264Z,65.18
2022-12-31T11:00:53.146Z,65.19
2022-12-31T11:03:55.394Z,67.43
2022-12-31T11:06:48.855Z,69.82
2022-12-31T11:09:31.271Z,70.33
2022-12-31T11:12:15.528Z,69.95
2022-12-31T11:15:33.399Z,70.82
2022-12-31T11:18:14.531Z,71.71
2022-12-31T11:21:00.543Z,72.96
2022-12-31T11:24:01.281Z,72.07
2022-12-31T11:26:56.263Z,73.01
2022-12-31T11:29:30.689Z,73.04
2022-12-31T11:32:40.435Z,74.20
2022-12-31T11:35:29.706Z,73.07
2022-12-31T11:38:17.945Z,73.72
2022-12-31T11:41:20.413Z,75.24
2022-12-31T11:43:49.006Z,74.40
2022-12-31T11:46:35.853Z,72.72
2022-12-31T11:49:24.876Z,74.07
2022-12-31T11:52:11.695Z,72.33
2022-12-31T11:54:51.046Z,71.67
2022-12-31T11:57:22.779Z,72.05
2022-12-31T11:59:59.263Z,73.11
2022-12-31T12:02:34.600Z,73.14
2022-12-31T12:05:10.987Z,72.42
2022-12-31T12:07:40.868Z,72.18
2022-12-31T12:10:35.250Z,72.96
2022-12-31T12:13:20.060Z,74.22
2022-12-31T12:15:52.750Z,76.01
2022-12-31T12:18:43.299Z,76.41
2022-12-31T12:21:21.614Z,75.07
2022-12-31T12:24:04.221Z,74.29
2022-12-31T12:26:41.733Z,73.35
2022-12-31T12:29:19.720Z,72.95
2022-12-31T12:32:03.350Z,72.52
2022-12-31T12:34:37.664Z,72.85
2022-12-31T12:37:25.607Z,72.45
2022-12-31T12:40:06.384Z,71.42
2022-12-31T12:42:35.382Z,69.58
2022-12-31T12:45:03.856Z,70.02
2022-12-31T12:47:33.966Z,66.84
2022-12-31T12:50:04.503Z,60.91
2022-12-31T12:53:08.241Z,57.21
2022-12-31T12:56:27.983Z,55.83
2022-12-31T12:59:10.188Z,50.25
2022-12-31T13:02:11.017Z,49.56
2022-12-31T13:05:11.051Z,47.52
2022-12-31T13:07:48.845Z,46.06
2022-12-31T13:10:44.806Z,46.16
2022-12-31T13:13:57.080Z,47.90
2022-12-31T13:16:51.568Z,49.79
2022-12-31T13:19:31.116Z,48.92
2022-12-31T13:22:16.999Z,50.62
2022-12-31T13:24:51.628Z,51.25
2022-12-31T13:27:33.928Z,52.83
2022-12-31T13:30:04.851Z,55.23
2022-12-31T13:32:40.929Z,57.57
2022-12-31T13:35:39.206Z,59.53
2022-12-31T13:38:19.158Z,60.75
2022-12-31T13:40:56.962Z,61.25
2022-12-31T13:43:34.552Z,61.27
2022-12-31T13:46:18.825Z,62.62
2022-12-31T13:48:53.937Z,63.80
2022-12-31T13:51:40.745Z,64.72
2022-12-31T13:54:46.701Z,64.63
2022-12-31T13:57:39.455Z,64.11
2022-12-31T14:00:38.935Z,63.76
2022-12-31T14:03:10.454Z,62.52
2022-12-31T14:05:52.313Z,61.77
2022-12-31T14:08:21.225Z,61.99
2022-12-31T14:10:55.526Z,62.79
2022-12-31T14:13:42.536Z,64.70
2022-12-31T14:16:11.344Z,65.66
2022-12-31T14:19:05.705Z,65.94
2022-12-31T14:21:45.249Z,66.89
2022-12-31T14:24:15.379Z,67.58
2022-12-31T14:26:56.544Z,68.30
2022-12-31T14:29:45.001Z,70.19
2022-12-31T14:32:35.739Z,70.45
2022-12-31T14:35:08.275Z,72.82
2022-12-31T14:37:56.005Z,74.57
2022-12-31T14:40:53.467Z,75.08
2022-12-31T14:43:48.808Z,75.31
2022-12-31T14:46:41.524Z,75.51
2022-12-31T14:49:15.738Z,75.86
2022-12-31T14:51:45.140Z,77.26
2022-12-31T14:54:35.123Z,78.15
2022-12-31T14:57:22.142Z,78.49
2022-12-31T14:59:57.367Z,83.05
2022-12-31T15:02:32.139Z,83.18
2022-12-31T15:05:10.944Z,83.56
2022-12-31T15:07:48.634Z,82.88
2022-12-31T15:10:30.217Z,83.13
2022-12-31T15:13:23.889Z,83.38
2022-12-31T15:16:32.360Z,83.54
2022-12-31T15:19:09.765Z,83.88
2022-12-31T15:22:15.795Z,84.15
2022-12-31T15:24:47.542Z,85.68
2022-12-31T15:27:38.933Z,89.80
2022-12-31T15:30:08.523Z,88.92
2022-12-31T15:32:41.725Z,87.29
2022-12-31T15:35:22.707Z,88.03
2022-12-31T15:38:01.022Z,87.01
2022-12-31T15:40:30.420Z,90.91
2022-12-31T15:43:10.571Z,90.36
2022-12-31T15:45:39.874Z,92.85
2022-12-31T15:48:23.098Z,92.32
2022-12-31T15:50:57.519Z,94.02
2022-12-31T15:53:41.511Z,92.31
2022-12-31T15:56:19.460Z,91.20
2022-12-31T15:58:49.992Z,92.41
2022-12-31T16:01:24.928Z,91.91
2022-12-31T16:04:15.426Z,90.82
2022-12-31T16:06:50.460Z,89.57
2022-12-31T16:09:25.281Z,89.28
2022-12-31T16:11:58.733Z,90.95
2022-12-31T16:14:36.999Z,94.31
2022-12-31T16:17:06.812Z,93.54
2022-12-31T16:19:43.372Z,94.20
2022-12-31T16:22:25.893Z,92.33
2022-12-31T16:27:51.308Z,95.00
2022-12-31T16:30:21.437Z,94.02
2022-12-31T16:32:51.750Z,92.76
2022-12-31T16:35:29.095Z,91.42
2022-12-31T16:38:18.514Z,90.68
2022-12-31T16:41:16.928Z,92.05
2022-12-31T16:43:47.529Z,93.14
2022-12-31T16:46:28.904Z,93.68
2022-12-31T16:49:00.892Z,94.86
2022-12-31T16:51:33.045Z,94.99
2022-12-31T16:54:02.760Z,93.70
2022-12-31T16:56:39.831Z,93.84
2022-12-31T16:59:24.192Z,95.35
2022-12-31T17:01:57.976Z,95.34
2022-12-31T17:04:27.296Z,96.17
2022-12-31T17:07:15.946Z,96.32
2022-12-31T17:09:44.635Z,96.64
2022-12-31T17:12:16.898Z,97.25
2022-12-31T17:14:50.613Z,97.45
2022-12-31T17:17:26.372Z,97.88
2022-12-31T17:20:00.982Z,96.08
2022-12-31T17:22:50.451Z,95.88
2022-12-31T17:25:28.893Z,94.05
2022-12-31T17:28:07.482Z,93.41
2022-12-31T17:30:40.559Z,92.86
2022-12-31T17:33:09.053Z,95.02
2022-12-31T17:35:47.274Z,95.45
2022-12-31T17:38:18.813Z,96.96
2022-12-31T17:40:53.660Z,96.88
2022-12-31T17:43:24.636Z,97.36
2022-12-31T17:45:55.416Z,98.11
2022-12-31T17:48:25.331Z,98.13
2022-12-31T17:51:00.104Z,96.98
2022-12-31T17:53:28.858Z,95.85
2022-12-31T17:56:05.129Z,96.45
2022-12-31T17:58:38.296Z,96.88
2022-12-31T18:01:08.840Z,97.39
2022-12-31T18:03:37.620Z,97.55
2022-12-31T18:06:10.222Z,96.80
2022-12-31T18:08:41.775Z,94.48
2022-12-31T18:11:20.061Z,94.60
2022-12-31T18:13:50.701Z,96.89
2022-12-31T18:16:19.409Z,96.88
2022-12-31T18:18:48.367Z,96.59
2022-12-31T18:21:28.633Z,98.19
2022-12-31T18:26:26.425Z,98.60
2022-12-31T18:28:55.292Z,97.46
2022-12-31T18:31:29.262Z,96.83
2022-12-31T18:33:59.327Z,98.05
2022-12-31T18:36:29.234Z,97.16
2022-12-31T18:38:57.926Z,96.66
2022-12-31T18:41:30.093Z,97.47
2022-12-31T18:43:58.673Z,98.41
2022-12-31T18:46:28.023Z,97.26
2022-12-31T18:48:56.552Z,97.96
2022-12-31T18:51:31.411Z,97.82
2022-12-31T18:54:02.187Z,97.68
2022-12-31T18:56:31.847Z,97.98
2022-12-31T18:59:00.515Z,98.00
2022-12-31T19:01:35.397Z,97.96
2022-12-31T19:04:27.498Z,97.68
2022-12-31T19:06:57.631Z,97.40
2022-12-31T19:12:15.842Z,96.30
2022-12-31T19:14:46.619Z,97.58
2022-12-31T19:17:15.704Z,97.98
2022-12-31T19:19:44.682Z,98.06
2022-12-31T19:22:15.811Z,98.48
2022-12-31T19:24:44.616Z,98.01
2022-12-31T19:27:13.955Z,96.82
2022-12-31T19:29:42.491Z,96.91
2022-12-31T19:32:11.220Z,97.84
2022-12-31T19:34:40.086Z,96.44
2022-12-31T19:37:19.405Z,95.94
2022-12-31T19:39:48.005Z,97.35
2022-12-31T19:42:16.717Z,97.72
2022-12-31T19:44:47.612Z,97.83
2022-12-31T19:47:16.294Z,97.64
2022-12-31T19:49:45.190Z,98.42
2022-12-31T19:52:13.774Z,98.16
2022-12-31T19:54:42.359Z,98.13
2022-12-31T19:57:11.040Z,97.33
2022-12-31T19:59:39.619Z,97.17
2022-12-31T20:02:10.028Z,98.84
2022-12-31T20:04:38.735Z,98.09
2022-12-31T20:07:08.566Z,96.90
2022-12-31T20:09:37.230Z,97.40
2022-12-31T20:12:06.427Z,98.45
2022-12-31T20:14:35.438Z,98.00
2022-12-31T20:17:04.534Z,96.07
2022-12-31T20:19:33.787Z,99.11
2022-12-31T20:22:02.501Z,99.55
2022-12-31T20:24:31.396Z,98.97
2022-12-31T20:27:00.295Z,99.56
2022-12-31T20:29:29.381Z,99.34
2022-12-31T20:31:58.166Z,99.98
2022-12-31T20:34:26.982Z,100.00
2022-12-31T20:36:56.666Z,99.62
2022-12-31T20:39:25.459Z,100.00
2022-12-31T20:41:54.259Z,100.00
2022-12-31T20:44:23.131Z,100.00
2022-12-31T20:46:51.857Z,100.00
2022-12-31T20:49:31.376Z,100.00
2022-12-31T20:52:06.284Z,99.69
2022-12-31T20:54:36.000Z,99.63
2022-12-31T20:57:04.788Z,99.43
2022-12-31T20:59:33.476Z,98.91
2022-12-31T21:04:51.667Z,99.36
2022-12-31T21:07:20.517Z,99.48
2022-12-31T21:09:49.409Z,99.41
2022-12-31T21:12:36.939Z,98.12
2022-12-31T21:15:06.259Z,97.37
2022-12-31T21:17:34.822Z,97.37
2022-12-31T21:20:05.620Z,98.69
2022-12-31T21:22:34.444Z,98.57
2022-12-31T21:25:03.361Z,98.10
2022-12-31T21:27:31.815Z,97.61
2022-12-31T21:32:49.501Z,99.97
2022-12-31T21:38:08.967Z,99.83
2022-12-31T21:40:37.657Z,100.00
2022-12-31T21:43:06.433Z,100.00
2022-12-31T21:45:35.555Z,99.92
2022-12-31T21:48:20.283Z,99.97
2022-12-31T21:50:52.263Z,99.99
2022-12-31T21:53:29.053Z,99.24
2022-12-31T21:56:08.892Z,99.82
2022-12-31T21:58:40.447Z,99.65
2022-12-31T22:01:35.925Z,99.02
2022-12-31T22:04:07.890Z,98.81
2022-12-31T22:06:42.011Z,98.65
2022-12-31T22:09:11.137Z,98.30
2022-12-31T22:11:40.007Z,97.58
2022-12-31T22:14:10.139Z,97.26
2022-12-31T22:16:38.968Z,97.23
2022-12-31T22:19:08.435Z,96.05
2022-12-31T22:21:37.191Z,95.68
2022-12-31T22:24:06.715Z,96.04
2022-12-31T22:26:35.383Z,97.02
2022-12-31T22:29:04.282Z,97.47
2022-12-31T22:31:33.094Z,97.34
2022-12-31T22:34:02.380Z,97.41
2022-12-31T22:36:31.052Z,98.13
2022-12-31T22:38:59.736Z,97.88
2022-12-31T22:41:29.137Z,97.87
2022-12-31T22:44:04.001Z,98.05
2022-12-31T22:46:35.020Z,98.27
2022-12-31T22:49:05.329Z,98.26
2022-12-31T22:51:55.936Z,98.58
2022-12-31T22:54:22.770Z,98.62
2022-12-31T22:56:51.499Z,97.52
2022-12-31T22:59:20.352Z,97.77
2022-12-31T23:01:49.158Z,98.20
2022-12-31T23:04:17.887Z,97.81
2022-12-31T23:06:46.834Z,97.69
2022-12-31T23:09:35.680Z,96.90
2022-12-31T23:12:07.270Z,96.98
2022-12-31T23:14:55.166Z,97.79
2022-12-31T23:17:44.862Z,97.68
2022-12-31T23:20:38.411Z,97.49
2022-12-31T23:23:10.224Z,97.07
2022-12-31T23:25:50.829Z,96.51
2022-12-31T23:28:25.096Z,96.40
2022-12-31T23:30:54.154Z,96.02
2022-12-31T23:33:25.903Z,95.60
2022-12-31T23:36:07.792Z,95.67
2022-12-31T23:38:36.376Z,95.60
2022-12-31T23:41:16.296Z,95.81
2022-12-31T23:43:46.050Z,95.55
2022-12-31T23:46:16.532Z,95.80
2022-12-31T23:48:45.357Z,96.36
2022-12-31T23:51:14.152Z,96.29
2022-12-31T23:53:43.341Z,96.02
2022-12-31T23:56:23.354Z,96.57
2022-12-31T23:58:57.497Z,97.91
